Time;durP1;ratioP1;P1;durP2;ratioP2;P2;SDS_P1;SDS_P2;PMS_P1;PMS_P2;Temp;Humidity;BMP_temperature;BMP_pressure;BME280_temperature;BME280_humidity;BME280_pressure;Samples;Min_cycle;Max_cycle;Signal;HPM_P1;HPM_P2
2021/11/14 00:00:35;;;;;;;1170.18;999.90;;;;;;;;;;5049340;28;20024;-36
2021/11/14 00:03:02;;;;;;;1152.38;999.90;;;;;;;22.38;51.83;101808.16;5050535;28;20033;-36
2021/11/14 00:05:28;;;;;;;1183.93;999.90;;;;;;;22.28;51.80;101799.28;5046078;28;20032;-35
2021/11/14 00:07:54;;;;;;;1073.88;985.30;;;;;;;22.25;51.33;101798.69;5040111;28;20024;-35
2021/11/14 00:10:21;;;;;;;1161.55;999.90;;;;;;;22.30;52.06;101799.16;5051145;28;20104;-35
2021/11/14 00:12:47;;;;;;;1170.05;999.90;;;;;;;22.35;51.83;101799.56;5049602;28;20029;-36
2021/11/14 00:15:13;;;;;;;1178.00;999.90;;;;;;;22.38;52.03;101789.41;5057037;28;20512;-36
2021/11/14 00:17:39;;;;;;;1159.18;999.90;;;;;;;22.37;52.18;101803.78;5052986;28;20047;-36
2021/11/14 00:20:09;;;;;;;1138.97;999.90;;;;;;;22.38;51.85;101796.56;5059866;28;20214;-36
2021/11/14 00:22:36;;;;;;;1066.25;979.65;;;;;;;22.39;51.81;101799.13;5055611;28;20039;-36
2021/11/14 00:25:03;;;;;;;1156.70;999.90;;;;;;;22.39;52.04;101804.47;5058572;28;20021;-36
2021/11/14 00:27:29;;;;;;;1174.93;999.90;;;;;;;22.42;52.21;101800.69;5060021;28;20451;-36
2021/11/14 00:29:55;;;;;;;1183.50;999.90;;;;;;;22.42;51.95;101789.09;5052947;28;20017;-36
2021/11/14 00:32:21;;;;;;;1179.30;999.90;;;;;;;22.39;52.26;101793.75;5056937;28;20031;-36
2021/11/14 00:34:50;;;;;;;1153.55;999.90;;;;;;;22.39;52.06;101795.59;5054727;28;20028;-36
2021/11/14 00:37:16;;;;;;;1182.15;999.90;;;;;;;22.38;52.28;101801.94;5059682;28;20028;-36
2021/11/14 00:39:43;;;;;;;1157.35;999.90;;;;;;;22.37;52.20;101801.09;5054690;28;20359;-36
2021/11/14 00:42:09;;;;;;;1163.13;999.90;;;;;;;22.37;52.44;101800.25;5057064;28;20032;-36
2021/11/14 00:44:36;;;;;;;1181.82;999.90;;;;;;;22.33;52.40;101793.47;5055312;28;20028;-36
2021/11/14 00:47:02;;;;;;;1179.88;999.90;;;;;;;22.37;52.36;101806.44;5071159;28;20013;-36
2021/11/14 00:49:28;;;;;;;1187.25;999.90;;;;;;;22.34;52.45;101812.09;5053648;28;20028;-35
2021/11/14 00:51:55;;;;;;;1176.20;999.90;;;;;;;22.35;52.13;101820.97;5049476;28;20020;-36
2021/11/14 00:54:21;;;;;;;1174.85;999.90;;;;;;;22.32;52.46;101814.06;5050426;28;20037;-36
2021/11/14 00:56:47;;;;;;;1178.50;999.90;;;;;;;22.34;52.38;101825.47;5067209;28;20454;-36
2021/11/14 00:59:13;;;;;;;1169.25;999.90;;;;;;;22.34;52.35;101828.13;5052699;28;20067;-36
2021/11/14 01:01:39;;;;;;;1175.07;999.90;;;;;;;22.31;52.50;101828.41;5050386;28;20021;-36
2021/11/14 01:04:06;;;;;;;1165.60;999.90;;;;;;;22.18;52.36;101798.41;5065266;28;20359;-36
2021/11/14 01:06:32;;;;;;;1170.22;999.90;;;;;;;22.28;52.39;101814.47;5053508;28;20091;-36
2021/11/14 01:08:58;;;;;;;1191.45;999.90;;;;;;;22.29;52.56;101819.69;5052813;28;20115;-36
2021/11/14 01:11:25;;;;;;;1163.55;999.90;;;;;;;22.28;52.27;101830.53;5052928;28;20029;-36
2021/11/14 01:13:51;;;;;;;1177.10;999.90;;;;;;;22.24;52.43;101821.91;5058589;28;20035;-36
2021/11/14 01:16:19;;;;;;;1178.70;999.90;;;;;;;22.26;52.54;101837.81;5049276;28;20036;-36
2021/11/14 01:18:45;;;;;;;1176.03;999.90;;;;;;;22.25;52.65;101830.81;5059028;28;20343;-36
2021/11/14 01:21:12;;;;;;;1149.32;999.90;;;;;;;21.93;52.70;101789.97;5069917;28;20082;-36
2021/11/14 01:23:39;;;;;;;1142.32;999.90;;;;;;;22.21;52.69;101832.91;5055174;28;20033;-36
2021/11/14 01:26:06;;;;;;;1154.55;999.90;;;;;;;22.19;52.44;101841.06;5055844;28;20350;-36
2021/11/14 01:28:32;;;;;;;1143.45;999.90;;;;;;;22.17;52.67;101840.38;5050952;28;20033;-36
2021/11/14 01:30:59;;;;;;;1158.10;999.90;;;;;;;22.17;52.64;101836.84;5049572;28;20029;-36
2021/11/14 01:33:26;;;;;;;1173.20;999.90;;;;;;;22.15;52.54;101842.34;5048811;28;20060;-36
2021/11/14 01:35:55;;;;;;;1159.97;999.90;;;;;;;22.10;52.65;101841.94;5068635;28;20051;-36
2021/11/14 01:38:21;;;;;;;1148.75;999.90;;;;;;;22.13;52.51;101863.03;5052796;28;20087;-36
2021/11/14 01:40:55;;;;;;;1166.72;999.90;;;;;;;22.12;52.61;101865.84;5053076;28;20405;-36
2021/11/14 01:43:26;;;;;;;1154.20;999.90;;;;;;;22.10;52.89;101854.44;5053263;28;20029;-36
2021/11/14 01:45:53;;;;;;;1153.17;999.90;;;;;;;22.12;52.37;101858.69;5055020;28;20039;-36
2021/11/14 01:48:19;;;;;;;1163.55;999.90;;;;;;;22.09;52.56;101861.63;5046749;28;20664;-36
2021/11/14 01:50:45;;;;;;;1141.57;999.90;;;;;;;22.09;52.52;101863.47;5047103;28;20057;-36
2021/11/14 01:53:12;;;;;;;1163.65;999.90;;;;;;;22.07;52.57;101858.25;5048536;28;20017;-37
2021/11/14 01:55:43;;;;;;;1166.05;999.90;;;;;;;22.06;52.55;101858.38;5051034;28;20044;-36
2021/11/14 01:58:11;;;;;;;1123.90;999.90;;;;;;;22.06;52.59;101866.41;5051947;28;20498;-36
2021/11/14 02:00:44;;;;;;;1153.97;999.90;;;;;;;22.01;52.68;101878.38;5039819;28;20030;-36
2021/11/14 02:03:10;;;;;;;1156.65;999.90;;;;;;;22.03;52.83;101878.25;5054450;28;20036;-36
2021/11/14 02:05:37;;;;;;;1177.38;999.90;;;;;;;22.00;52.30;101876.69;5052889;28;20033;-37
2021/11/14 02:08:04;;;;;;;1123.85;999.90;;;;;;;21.50;51.35;101874.03;5063746;28;20028;-37
2021/11/14 02:10:30;;;;;;;1151.00;999.90;;;;;;;21.12;52.06;101875.50;5054672;28;20021;-35
2021/11/14 02:12:57;;;;;;;1099.85;999.90;;;;;;;20.99;52.13;101877.56;5061320;28;20021;-36
2021/11/14 02:15:23;;;;;;;1129.70;999.90;;;;;;;20.85;52.35;101873.41;5053697;28;20039;-36
2021/11/14 02:17:49;;;;;;;1100.38;999.78;;;;;;;20.78;52.38;101877.56;5058689;28;20020;-37
2021/11/14 02:20:16;;;;;;;1083.13;992.15;;;;;;;20.63;52.82;101869.88;5057910;28;20033;-37
2021/11/14 02:22:42;;;;;;;1114.72;999.90;;;;;;;20.59;53.03;101875.56;5054202;28;20029;-36
2021/11/14 02:25:09;;;;;;;1026.25;944.13;;;;;;;20.47;53.03;101875.63;5051147;28;20033;-36
2021/11/14 02:27:35;;;;;;;1064.75;978.40;;;;;;;20.59;53.44;101870.22;5045796;28;20032;-37
2021/11/14 02:30:02;;;;;;;1093.53;998.22;;;;;;;20.81;52.61;101875.47;5045203;28;20048;-37
2021/11/14 02:32:28;;;;;;;1118.38;999.90;;;;;;;20.97;52.53;101874.19;5048416;28;20370;-37
2021/11/14 02:34:55;;;;;;;1093.82;998.33;;;;;;;21.04;52.26;101878.00;5061556;28;20033;-36
2021/11/14 02:37:21;;;;;;;1132.28;999.90;;;;;;;21.11;52.30;101873.84;5064354;28;20017;-36
2021/11/14 02:39:47;;;;;;;1099.15;999.03;;;;;;;21.16;51.78;101871.59;5050678;28;20027;-36
2021/11/14 02:42:13;;;;;;;1112.30;999.90;;;;;;;21.19;52.13;101874.00;5052779;28;20470;-36
2021/11/14 02:44:39;;;;;;;1114.80;999.90;;;;;;;21.23;51.82;101871.91;5065728;28;20035;-36
2021/11/14 02:47:06;;;;;;;1097.90;998.30;;;;;;;21.24;51.66;101866.44;5059331;28;20024;-36
2021/11/14 02:49:32;;;;;;;1120.75;999.90;;;;;;;21.26;51.78;101869.84;5060084;28;20031;-36
2021/11/14 02:51:58;;;;;;;1121.32;999.90;;;;;;;21.27;52.03;101873.34;5062078;28;20037;-36
2021/11/14 02:54:24;;;;;;;1117.95;999.90;;;;;;;21.29;51.99;101868.72;5055451;28;20032;-36
2021/11/14 02:56:50;;;;;;;1133.32;999.90;;;;;;;21.31;51.96;101874.75;5045780;28;20018;-36
2021/11/14 02:59:17;;;;;;;1105.43;999.90;;;;;;;21.32;51.89;101879.13;5047183;28;20355;-37
2021/11/14 03:01:47;;;;;;;1143.95;999.90;;;;;;;21.29;51.98;101870.53;5056037;28;20350;-36
2021/11/14 03:04:17;;;;;;;1107.53;999.90;;;;;;;21.31;51.85;101871.25;5066539;28;20037;-37
2021/11/14 03:06:43;;;;;;;1137.07;999.90;;;;;;;21.32;52.10;101871.13;5060359;28;20043;-36
2021/11/14 03:09:10;;;;;;;1105.00;999.90;;;;;;;21.30;51.90;101865.06;5051639;28;20463;-36
2021/11/14 03:11:36;;;;;;;1064.75;979.63;;;;;;;21.29;51.89;101876.72;5054233;28;20475;-37
2021/11/14 03:14:03;;;;;;;1134.28;999.90;;;;;;;21.28;51.87;101869.69;5054136;28;20032;-37
2021/11/14 03:16:29;;;;;;;1103.68;999.90;;;;;;;21.29;52.33;101873.22;5062470;28;20024;-36
2021/11/14 03:18:56;;;;;;;1126.43;999.90;;;;;;;21.31;51.94;101872.09;5055606;28;20024;-36
2021/11/14 03:21:22;;;;;;;1119.07;999.90;;;;;;;21.34;51.94;101876.34;5054768;28;20431;-36
2021/11/14 03:23:49;;;;;;;1035.20;956.35;;;;;;;21.20;52.09;101854.31;5051945;28;20366;-36
2021/11/14 03:26:15;;;;;;;1121.60;999.90;;;;;;;21.36;52.09;101866.34;5051908;28;20029;-37
2021/11/14 03:28:42;;;;;;;1128.45;999.90;;;;;;;21.36;52.07;101866.34;5057633;28;20044;-38
2021/11/14 03:31:08;;;;;;;1132.13;999.90;;;;;;;21.36;52.06;101867.19;5052567;28;20124;-38
2021/11/14 03:33:35;;;;;;;1120.28;999.90;;;;;;;21.36;52.25;101877.03;5052792;28;20028;-38
2021/11/14 03:36:08;;;;;;;1143.32;999.90;;;;;;;21.34;51.94;101876.34;5054500;28;20036;-38
2021/11/14 03:38:42;;;;;;;1116.72;999.90;;;;;;;21.35;51.59;101878.00;5054642;28;20103;-38
2021/11/14 03:41:10;;;;;;;1132.25;999.90;;;;;;;21.34;52.00;101882.50;5045766;28;20025;-38
2021/11/14 03:43:36;;;;;;;1138.10;999.90;;;;;;;21.35;51.69;101884.19;5061236;28;20033;-37
2021/11/14 03:46:03;;;;;;;1142.97;999.90;;;;;;;21.34;52.08;101887.03;5056032;28;20021;-37
2021/11/14 03:48:30;;;;;;;1123.20;999.90;;;;;;;21.35;51.81;101894.88;5066622;28;20033;-37
2021/11/14 03:50:56;;;;;;;1142.40;999.90;;;;;;;21.36;51.63;101890.41;5050667;28;20056;-38
2021/11/14 03:53:22;;;;;;;1126.80;999.90;;;;;;;21.35;51.75;101900.22;5045894;28;20043;-37
2021/11/14 03:55:49;;;;;;;1127.65;999.90;;;;;;;21.36;51.68;101898.41;5055546;28;20483;-37
2021/11/14 03:58:16;;;;;;;1147.03;999.90;;;;;;;21.34;51.77;101897.72;5057154;28;20037;-38
2021/11/14 04:00:44;;;;;;;1138.90;999.90;;;;;;;21.32;51.56;101897.84;5057867;28;20469;-38
2021/11/14 04:03:11;;;;;;;1140.80;999.90;;;;;;;21.32;51.80;101905.00;5056323;28;20043;-38
2021/11/14 04:05:37;;;;;;;1144.15;999.90;;;;;;;21.32;51.92;101902.31;5052583;28;20021;-37
2021/11/14 04:08:17;;;;;;;1137.40;999.90;;;;;;;21.30;51.64;101904.28;5054897;28;20454;-38
2021/11/14 04:10:44;;;;;;;1123.03;999.90;;;;;;;21.31;51.83;101898.81;5052183;28;20029;-38
2021/11/14 04:13:11;;;;;;;1102.38;999.90;;;;;;;21.32;51.87;101899.66;5050508;28;20037;-38
2021/11/14 04:15:37;;;;;;;1101.53;999.90;;;;;;;21.33;51.61;101906.69;5051067;28;20027;-38
2021/11/14 04:18:03;;;;;;;1106.25;999.90;;;;;;;21.32;51.54;101907.66;5052140;28;20116;-38
2021/11/14 04:20:30;;;;;;;1143.45;999.90;;;;;;;21.30;51.58;101906.94;5055249;28;20029;-38
2021/11/14 04:22:57;;;;;;;1113.43;999.90;;;;;;;21.32;51.64;101902.31;5051909;28;20063;-38
2021/11/14 04:25:23;;;;;;;1138.15;999.90;;;;;;;21.31;51.76;101906.00;5054763;28;20052;-38
2021/11/14 04:27:49;;;;;;;1122.20;999.90;;;;;;;21.29;51.69;101907.94;5018685;28;20025;-38
2021/11/14 04:30:16;;;;;;;1128.30;999.90;;;;;;;21.27;51.67;101908.91;5054392;28;20498;-38
2021/11/14 04:32:42;;;;;;;1146.57;999.90;;;;;;;21.26;51.58;101917.94;5056702;28;20478;-38
2021/11/14 04:35:08;;;;;;;1124.88;999.90;;;;;;;21.24;51.39;101909.16;5034962;28;20029;-38
2021/11/14 04:37:35;;;;;;;1095.75;999.67;;;;;;;21.13;51.48;101887.91;5048413;28;20021;-38
2021/11/14 04:40:01;;;;;;;1119.75;999.90;;;;;;;21.24;51.69;101906.50;5053633;28;20447;-37
2021/11/14 04:42:27;;;;;;;1112.78;999.90;;;;;;;21.24;51.37;101908.34;5055944;28;20039;-37
2021/11/14 04:44:54;;;;;;;1112.38;999.90;;;;;;;21.25;51.36;101910.03;5054510;28;20090;-38
2021/11/14 04:47:20;;;;;;;1116.72;999.90;;;;;;;21.25;51.21;101907.38;5057609;28;20473;-38
2021/11/14 04:49:46;;;;;;;1110.63;999.90;;;;;;;21.24;51.26;101906.50;5061154;28;20141;-37
2021/11/14 04:52:12;;;;;;;1118.60;999.90;;;;;;;21.21;51.31;101920.16;5071310;28;20474;-38
2021/11/14 04:54:38;;;;;;;1117.18;999.90;;;;;;;21.19;51.59;101916.72;5069374;28;20332;-38
2021/11/14 04:57:05;;;;;;;1126.90;999.90;;;;;;;21.20;51.55;101921.13;5046998;28;20017;-38
2021/11/14 04:59:31;;;;;;;1119.07;999.90;;;;;;;21.18;51.84;101923.06;5037954;28;20057;-38
2021/11/14 05:01:57;;;;;;;1110.78;999.90;;;;;;;21.18;51.75;101920.41;5036249;28;20095;-38
2021/11/14 05:04:23;;;;;;;1132.53;999.90;;;;;;;21.15;51.20;101919.81;5067603;28;20070;-38
2021/11/14 05:06:50;;;;;;;1094.13;995.75;;;;;;;21.18;51.19;101933.75;5056011;28;20032;-37
2021/11/14 05:09:16;;;;;;;1114.45;999.90;;;;;;;21.19;51.37;101931.94;5061816;28;20032;-38
2021/11/14 05:11:42;;;;;;;1089.15;996.63;;;;;;;21.19;51.17;101931.94;5057864;28;20040;-37
2021/11/14 05:14:09;;;;;;;1089.75;995.90;;;;;;;21.18;50.87;101932.91;5055584;28;21189;-38
2021/11/14 05:16:35;;;;;;;1101.80;999.90;;;;;;;21.18;50.80;101930.25;5047685;28;20411;-37
2021/11/14 05:19:01;;;;;;;1119.82;999.90;;;;;;;21.14;51.28;101923.47;5054758;28;20066;-38
2021/11/14 05:21:27;;;;;;;1097.05;999.03;;;;;;;21.16;51.33;101926.84;5051839;28;20036;-38
2021/11/14 05:23:53;;;;;;;1105.18;999.90;;;;;;;21.12;51.18;101923.59;5051681;28;20033;-38
2021/11/14 05:26:19;;;;;;;1123.03;999.90;;;;;;;21.11;51.05;101918.41;5049957;28;20029;-38
2021/11/14 05:28:46;;;;;;;1105.32;999.90;;;;;;;21.10;51.11;101917.53;5053317;28;20108;-38
2021/11/14 05:31:12;;;;;;;1101.65;999.90;;;;;;;21.10;51.07;101917.53;5059515;28;20067;-38
2021/11/14 05:33:38;;;;;;;1128.47;999.90;;;;;;;21.09;51.26;101913.19;5044049;28;20033;-37
2021/11/14 05:36:04;;;;;;;1095.78;998.50;;;;;;;21.11;50.91;101921.06;5045139;28;20024;-37
2021/11/14 05:38:31;;;;;;;1102.78;999.90;;;;;;;21.12;51.11;101920.91;5049848;28;20056;-37
2021/11/14 05:40:57;;;;;;;1087.97;995.22;;;;;;;21.12;50.90;101917.41;5048805;28;20028;-38
2021/11/14 05:43:23;;;;;;;1114.30;999.90;;;;;;;21.12;50.74;101925.41;5052992;28;20029;-38
2021/11/14 05:45:49;;;;;;;1067.90;985.22;;;;;;;21.07;51.18;101924.00;5045510;28;20033;-37
2021/11/14 05:48:15;;;;;;;1134.10;999.90;;;;;;;21.04;50.93;101918.91;5058198;28;20025;-37
2021/11/14 05:50:42;;;;;;;1096.28;998.55;;;;;;;21.04;51.01;101923.41;5051859;28;20021;-38
2021/11/14 05:53:09;;;;;;;1105.43;999.90;;;;;;;21.04;50.79;101918.91;5052860;28;20109;-38
2021/11/14 05:55:35;;;;;;;1138.13;999.90;;;;;;;21.02;51.19;101923.53;5052411;28;20056;-38
2021/11/14 05:58:05;;;;;;;1117.50;999.90;;;;;;;21.04;50.75;101923.41;5069180;28;20067;-38
2021/11/14 06:01:25;;;;;;;1130.15;999.90;;;;;;;21.03;51.09;101927.91;5052485;28;20037;-38
2021/11/14 06:05:45;;;;;;;1098.15;999.90;;;;;;;21.03;50.82;101930.59;5058121;28;20017;-38
2021/11/14 06:08:11;;;;;;;1114.15;999.90;;;;;;;21.02;50.44;101928.03;5065977;28;20021;-38
2021/11/14 06:10:38;;;;;;;1127.97;999.90;;;;;;;21.04;50.59;101928.75;5058089;28;20025;-38
2021/11/14 06:13:04;;;;;;;1127.07;999.90;;;;;;;21.03;50.68;101914.56;5057690;28;20037;-37
2021/11/14 06:15:30;;;;;;;1097.40;999.58;;;;;;;20.99;51.11;101918.44;5057370;28;20067;-38
2021/11/14 06:17:57;;;;;;;1097.18;998.88;;;;;;;20.99;50.60;101929.13;5058519;28;21349;-37
2021/11/14 06:20:23;;;;;;;1084.65;995.10;;;;;;;20.98;50.79;101932.81;5052064;28;20043;-37
2021/11/14 06:22:49;;;;;;;1106.15;999.90;;;;;;;20.98;50.63;101929.25;5057470;28;20024;-38
2021/11/14 06:25:17;;;;;;;1081.68;993.60;;;;;;;20.96;51.07;101931.22;5055841;28;20033;-37
2021/11/14 06:27:43;;;;;;;1095.43;998.63;;;;;;;20.97;50.65;101935.59;5054683;28;20039;-37
2021/11/14 06:30:11;;;;;;;1087.00;995.55;;;;;;;20.93;50.40;101932.34;5053522;28;20392;-37
2021/11/14 06:32:38;;;;;;;1079.47;993.70;;;;;;;20.95;50.73;101935.72;5053968;28;20107;-38
2021/11/14 06:35:04;;;;;;;1073.85;987.92;;;;;;;20.94;50.43;101935.84;5066516;28;20024;-37
2021/11/14 06:37:31;;;;;;;1080.47;991.95;;;;;;;20.94;50.81;101934.00;5055346;28;20025;-37
2021/11/14 06:39:57;;;;;;;1091.07;998.67;;;;;;;20.91;50.85;101936.09;5064864;28;20031;-38
2021/11/14 06:42:23;;;;;;;1078.93;992.50;;;;;;;20.88;50.98;101934.56;5077565;28;20112;-38
2021/11/14 06:44:49;;;;;;;1054.50;973.20;;;;;;;20.86;50.81;101929.34;5060343;28;20032;-37
2021/11/14 06:47:15;;;;;;;1086.30;998.47;;;;;;;20.85;50.71;101935.63;5054303;28;20026;-37
2021/11/14 06:49:42;;;;;;;1100.85;999.90;;;;;;;20.84;50.63;101927.78;5039437;28;20544;-37
2021/11/14 06:52:08;;;;;;;1086.00;996.05;;;;;;;20.80;50.97;101927.16;5053792;28;20028;-37
2021/11/14 06:54:35;;;;;;;1097.80;999.90;;;;;;;20.84;50.80;101919.78;5069986;28;20036;-38
2021/11/14 06:57:01;;;;;;;1087.70;997.72;;;;;;;20.80;50.72;101929.00;5054948;28;20021;-37
2021/11/14 06:59:27;;;;;;;1086.60;997.05;;;;;;;20.80;50.70;101921.84;5051763;28;20032;-37
2021/11/14 07:01:53;;;;;;;1044.07;966.00;;;;;;;20.78;50.35;101923.78;5058596;28;20048;-37
2021/11/14 07:04:20;;;;;;;1079.05;994.60;;;;;;;20.81;50.79;101915.53;5044582;28;20017;-37
2021/11/14 07:06:46;;;;;;;1066.90;984.63;;;;;;;20.77;50.68;101921.25;5057344;28;20036;-37
2021/11/14 07:09:14;;;;;;;1063.57;981.38;;;;;;;20.74;50.56;101926.88;5051728;28;20017;-37
2021/11/14 07:11:40;;;;;;;1097.22;999.90;;;;;;;20.73;50.63;101915.31;5053826;28;20469;-37
2021/11/14 07:14:07;;;;;;;1056.82;975.45;;;;;;;20.74;50.35;101917.03;5056206;28;20063;-37
2021/11/14 07:16:33;;;;;;;1056.68;975.05;;;;;;;20.71;50.97;101914.59;5055201;28;20528;-37
2021/11/14 07:18:59;;;;;;;1094.07;999.55;;;;;;;20.66;50.51;101917.69;5054316;28;20496;-37
2021/11/14 07:21:25;;;;;;;1075.50;989.35;;;;;;;20.67;50.59;101915.84;5055301;28;20077;-37
2021/11/14 07:23:52;;;;;;;1082.40;997.08;;;;;;;20.64;50.39;101916.09;5066794;28;20029;-37
2021/11/14 07:26:18;;;;;;;1100.28;999.90;;;;;;;20.67;50.65;101915.84;5053356;28;20350;-37
2021/11/14 07:28:44;;;;;;;1086.13;996.95;;;;;;;20.66;50.58;101908.81;5054822;28;20371;-37
2021/11/14 07:31:10;;;;;;;1076.15;993.92;;;;;;;20.65;50.64;101912.47;5052845;28;20044;-37
2021/11/14 07:33:37;;;;;;;1060.65;978.20;;;;;;;20.62;50.90;101908.22;5061232;28;20094;-37
2021/11/14 07:36:03;;;;;;;1057.68;974.85;;;;;;;20.60;50.80;101907.47;5052373;28;20064;-37
2021/11/14 07:38:29;;;;;;;1062.32;979.25;;;;;;;20.62;50.73;101915.38;5054309;28;20028;-37
2021/11/14 07:40:55;;;;;;;1077.57;992.30;;;;;;;20.60;50.76;101915.47;5063748;28;20024;-37
2021/11/14 07:43:21;;;;;;;1072.03;987.95;;;;;;;20.57;50.86;101906.88;5054184;28;20024;-38
2021/11/14 07:45:48;;;;;;;1081.03;995.30;;;;;;;20.57;50.45;101909.53;5070347;28;20052;-38
2021/11/14 07:48:14;;;;;;;1051.10;971.25;;;;;;;20.56;50.36;101910.53;5040597;28;20049;-38
2021/11/14 07:50:41;;;;;;;1093.15;999.90;;;;;;;20.55;50.27;101906.16;5055897;28;20028;-37
2021/11/14 07:53:07;;;;;;;1078.80;993.45;;;;;;;20.55;50.58;101908.84;5055066;28;20107;-38
2021/11/14 07:55:33;;;;;;;1096.15;999.83;;;;;;;20.54;50.52;101909.78;5055195;28;20109;-37
2021/11/14 07:58:02;;;;;;;1078.47;993.55;;;;;;;20.52;50.34;101910.78;5053850;28;20079;-37
2021/11/14 08:00:28;;;;;;;1050.63;970.65;;;;;;;20.52;50.29;101908.13;5050710;28;20033;-37
2021/11/14 08:02:54;;;;;;;1056.70;976.33;;;;;;;20.48;50.54;101913.81;5043056;28;20086;-37
2021/11/14 08:05:21;;;;;;;1068.35;986.58;;;;;;;20.46;50.64;101911.28;5065172;28;20032;-37
2021/11/14 08:07:47;;;;;;;1054.97;973.35;;;;;;;20.47;50.51;101915.66;5055134;28;20417;-37
2021/11/14 08:10:14;;;;;;;1068.13;986.10;;;;;;;20.46;50.56;101915.78;5056383;28;20064;-37
2021/11/14 08:12:40;;;;;;;1056.07;975.72;;;;;;;20.44;50.22;101915.06;5059323;28;20048;-37
2021/11/14 08:15:07;;;;;;;1072.72;989.45;;;;;;;20.41;50.30;101920.66;5055689;28;20024;-37
2021/11/14 08:17:33;;;;;;;1079.40;995.13;;;;;;;20.44;50.44;101923.91;5062617;28;20069;-37
2021/11/14 08:20:01;;;;;;;1069.75;988.92;;;;;;;20.40;50.56;101922.47;5054305;28;20025;-37
2021/11/14 08:22:30;;;;;;;1067.72;987.05;;;;;;;20.40;50.14;101917.13;5060121;28;20378;-37
2021/11/14 08:24:58;;;;;;;1082.47;997.40;;;;;;;20.31;50.02;101902.75;5044154;28;20017;-37
2021/11/14 08:27:24;;;;;;;1063.85;982.10;;;;;;;20.38;50.12;101919.09;5055636;28;20147;-37
2021/11/14 08:29:50;;;;;;;1083.25;996.20;;;;;;;20.37;50.30;101909.38;5047892;28;20028;-37
2021/11/14 08:32:18;;;;;;;1082.90;995.85;;;;;;;20.36;50.50;101913.03;5059851;28;20052;-37
2021/11/14 08:34:44;;;;;;;1080.22;997.58;;;;;;;20.33;50.11;101911.47;5062395;28;20032;-37
2021/11/14 08:37:11;;;;;;;1048.82;970.47;;;;;;;20.32;50.68;101903.56;5057242;28;20413;-37
2021/11/14 08:39:38;;;;;;;1089.00;998.65;;;;;;;20.20;50.31;101896.59;5059495;28;20029;-37
2021/11/14 08:42:05;;;;;;;1063.20;982.47;;;;;;;20.31;50.55;101901.91;5054258;28;20035;-37
2021/11/14 08:44:31;;;;;;;1063.40;983.05;;;;;;;20.32;50.49;101908.91;5059990;28;20481;-37
2021/11/14 08:46:57;;;;;;;1061.88;980.80;;;;;;;20.29;50.20;101903.84;5055067;28;20340;-37
2021/11/14 08:49:24;;;;;;;1050.88;971.42;;;;;;;20.28;50.04;101894.97;5052980;28;20036;-37
2021/11/14 08:51:50;;;;;;;1073.07;990.50;;;;;;;20.25;50.19;101903.25;5049168;28;20025;-37
2021/11/14 08:54:16;;;;;;;1079.90;995.13;;;;;;;20.24;50.37;101898.03;5057288;28;20021;-37
2021/11/14 08:56:43;;;;;;;1086.45;997.95;;;;;;;20.22;50.58;101906.16;5053659;28;20033;-37
2021/11/14 08:59:09;;;;;;;1071.38;991.25;;;;;;;20.20;50.76;101905.47;5051806;28;20024;-37
2021/11/14 09:01:38;;;;;;;1083.05;997.72;;;;;;;20.16;50.63;101898.66;5047674;28;20501;-37
2021/11/14 09:04:07;;;;;;;1059.45;978.58;;;;;;;20.19;50.74;101906.41;5042429;28;20045;-38
2021/11/14 09:06:36;;;;;;;1052.47;972.58;;;;;;;20.14;50.44;101912.13;5053074;28;20024;-37
2021/11/14 09:09:04;;;;;;;1062.32;982.67;;;;;;;20.11;50.58;101900.84;5054072;28;20366;-37
2021/11/14 09:11:30;;;;;;;1054.22;975.53;;;;;;;20.16;50.31;101913.81;5063842;28;20039;-37
2021/11/14 09:13:57;;;;;;;1053.63;975.30;;;;;;;20.16;50.15;101901.31;5055708;28;20101;-37
2021/11/14 09:16:27;;;;;;;1012.90;939.42;;;;;;;20.17;50.39;101897.69;5049401;28;20028;-37
2021/11/14 09:18:58;;;;;;;1038.90;961.80;;;;;;;20.18;50.32;101893.19;5053873;28;20036;-37
2021/11/14 09:21:24;;;;;;;1059.82;980.38;;;;;;;20.13;50.09;101902.44;5064275;28;20017;-37
2021/11/14 09:23:51;;;;;;;1077.00;994.47;;;;;;;20.13;50.40;101897.09;5059669;28;20030;-37
2021/11/14 09:26:17;;;;;;;1049.35;970.80;;;;;;;20.06;50.30;101898.59;5052237;28;20139;-38
2021/11/14 09:28:44;;;;;;;1041.32;964.13;;;;;;;20.09;50.62;101909.00;5051247;28;20362;-38
2021/11/14 09:31:11;;;;;;;1041.43;964.95;;;;;;;20.05;50.79;101904.88;5048241;28;20025;-37
2021/11/14 09:33:37;;;;;;;1055.15;976.17;;;;;;;20.05;50.28;101912.88;5036422;28;20968;-37
2021/11/14 09:36:04;;;;;;;1057.90;978.08;;;;;;;20.01;50.40;101914.09;5051289;28;20021;-37
2021/11/14 09:38:30;;;;;;;1052.03;973.33;;;;;;;20.06;50.33;101921.75;5052567;28;20033;-37
2021/11/14 09:40:58;;;;;;;1067.50;985.83;;;;;;;20.02;50.57;101921.13;5053684;28;20091;-37
2021/11/14 09:43:28;;;;;;;1048.70;970.80;;;;;;;20.01;50.69;101914.09;5053162;28;20025;-37
2021/11/14 09:45:54;;;;;;;1038.45;961.60;;;;;;;20.01;50.32;101922.09;5046871;28;20048;-37
2021/11/14 09:48:21;;;;;;;1059.88;981.40;;;;;;;20.01;50.54;101915.94;5039440;28;20367;-37
2021/11/14 09:50:51;;;;;;;1047.55;970.20;;;;;;;20.00;50.36;101924.88;5054243;28;20377;-37
2021/11/14 09:53:17;;;;;;;1063.53;983.33;;;;;;;19.99;50.10;101917.88;5038410;28;20123;-37
2021/11/14 09:55:43;;;;;;;1043.47;964.72;;;;;;;19.95;50.80;101922.63;5047448;28;20216;-37
2021/11/14 09:58:09;;;;;;;1037.50;960.67;;;;;;;19.96;50.57;101931.44;5041736;28;20524;-37
2021/11/14 10:00:38;;;;;;;1045.28;966.45;;;;;;;19.95;50.33;101927.94;5050715;28;20435;-37
2021/11/14 10:03:05;;;;;;;1066.68;986.00;;;;;;;19.91;50.59;101929.13;5053232;28;20029;-37
2021/11/14 10:05:34;;;;;;;1058.15;979.10;;;;;;;19.94;50.57;101928.91;5051783;28;20037;-37
2021/11/14 10:08:05;;;;;;;1038.20;960.30;;;;;;;19.91;50.47;101931.81;5053261;28;20025;-37
2021/11/14 10:10:34;;;;;;;1021.40;945.83;;;;;;;19.91;50.55;101929.13;5051562;28;20021;-37
2021/11/14 10:13:20;;;;;;;1039.65;962.83;;;;;;;19.91;50.48;101926.47;5050088;28;20382;-37
2021/11/14 10:15:49;;;;;;;1032.97;957.10;;;;;;;19.88;50.37;101921.38;5045912;28;20163;-37
2021/11/14 10:18:18;;;;;;;1043.68;966.10;;;;;;;19.86;50.28;101926.00;5052900;28;20049;-37
2021/11/14 10:20:44;;;;;;;1055.32;976.40;;;;;;;19.86;50.64;101921.53;5053559;28;20358;-37
2021/11/14 10:23:15;;;;;;;1042.95;965.10;;;;;;;19.81;50.72;101918.38;5053814;28;20032;-37
2021/11/14 10:25:42;;;;;;;1050.38;973.08;;;;;;;19.80;50.62;101918.50;5053538;28;20061;-37
2021/11/14 10:28:08;;;;;;;1057.68;979.55;;;;;;;19.81;50.53;101928.19;5049708;28;20392;-37
2021/11/14 10:30:37;;;;;;;1058.57;977.90;;;;;;;19.77;50.76;101926.75;5045881;28;20025;-37
2021/11/14 10:33:07;;;;;;;1041.28;965.53;;;;;;;19.77;50.78;101929.41;5049320;28;20124;-37
2021/11/14 10:35:33;;;;;;;1034.47;960.15;;;;;;;19.82;50.37;101932.56;5047263;28;20444;-37
2021/11/14 10:38:05;;;;;;;1036.10;961.50;;;;;;;19.72;50.46;101921.75;5040485;28;20076;-37
2021/11/14 10:40:34;;;;;;;1026.45;952.00;;;;;;;19.46;50.24;101862.53;5052794;28;20075;-37
2021/11/14 10:43:01;;;;;;;1030.18;955.60;;;;;;;19.80;50.62;101937.16;5047268;28;20159;-37
2021/11/14 10:45:28;;;;;;;1024.43;949.75;;;;;;;19.65;50.64;101910.72;5046852;28;20033;-37
2021/11/14 10:47:58;;;;;;;1030.93;956.00;;;;;;;19.73;50.72;101931.44;5050789;28;20366;-37